Elida, Ohio
Current Conditions -  °F | °C
As of 10:53 AM on Saturday 25 Oct 2014 (Local Time) from KAOH Reporting Station
Clear Clear  
Wind Chill: 62°   Ceiling: Unl
Heat Index: 62°   Visibility: 9mi
Dew Point: 52°   Wind: 14mph
Humidity: 70%   Direction: 240°WSW
Pressure: 29.91"   Gusts: NA
Location:  40.8051°N, 84.1755°W
Report Text: KAOH 251453Z AUTO 24012KT 9SM CLR 17/11 A2991 RMK AO2 SLP127 T01670111 58005
Loading
Personal Weather Stations






























Interactive Weather Map
Tropical Storm Tracking
New forecast layout! Learn more

10-Day Weather Forecast

Advertisements
Track Severe Weather on mobile